Time;durP1;ratioP1;P1;durP2;ratioP2;P2;SDS_P1;SDS_P2;PMS_P1;PMS_P2;Temp;Humidity;BMP_temperature;BMP_pressure;BME280_temperature;BME280_humidity;BME280_pressure;Samples;Min_cycle;Max_cycle;Signal;HPM_P1;HPM_P2
2021/03/25 00:00:29;;;;;;;35.23;11.03;;;;;;;3.38;86.40;96468.16;1278380;23;20043;-78
2021/03/25 00:01:00;;;;;;;16.57;10.50;;;;;;;3.37;86.40;96466.50;1278552;23;20128;-79
2021/03/25 00:01:32;;;;;;;19.35;10.98;;;;;;;3.31;86.57;96467.34;1278142;23;20060;-79
2021/03/25 00:02:03;;;;;;;16.58;10.07;;;;;;;3.28;86.49;96468.59;1278185;23;20434;-79
2021/03/25 00:02:33;;;;;;;18.20;10.80;;;;;;;3.35;86.22;96463.28;1271396;23;20017;-80
2021/03/25 00:03:08;;;;;;;16.07;10.57;;;;;;;3.38;86.34;96468.16;1271513;23;20001;-80
2021/03/25 00:03:38;;;;;;;19.45;10.40;;;;;;;3.36;86.01;96459.59;1271501;23;20320;-80
2021/03/25 00:04:08;;;;;;;24.63;10.23;;;;;;;3.28;86.49;96465.16;1272959;23;20052;-80
2021/03/25 00:04:39;;;;;;;14.23;10.00;;;;;;;3.28;86.46;96458.03;1277181;23;20001;-79
2021/03/25 00:05:10;;;;;;;17.80;10.50;;;;;;;3.29;85.90;96457.00;1272237;23;20009;-79
2021/03/25 00:05:41;;;;;;;20.38;10.35;;;;;;;3.31;85.98;96457.59;1277840;23;20005;-80
2021/03/25 00:06:11;;;;;;;18.43;11.03;;;;;;;3.30;85.93;96463.09;1278409;23;20009;-80
2021/03/25 00:06:48;;;;;;;15.87;10.37;;;;;;;3.32;86.08;96461.84;1278426;23;20005;-79
2021/03/25 00:07:19;;;;;;;17.30;10.13;;;;;;;3.30;85.96;96460.47;1278420;23;20437;-80
2021/03/25 00:07:49;;;;;;;15.37;9.80;;;;;;;3.32;85.87;96450.47;1278547;23;19997;-79
2021/03/25 00:08:23;;;;;;;19.57;10.30;;;;;;;3.29;85.66;96456.19;1278322;23;20009;-80
2021/03/25 00:08:54;;;;;;;19.55;10.52;;;;;;;3.28;85.80;96454.59;1278200;23;20035;-81
2021/03/25 00:09:33;;;;;;;17.83;10.37;;;;;;;3.23;86.07;96459.69;1278662;23;20005;-81
2021/03/25 00:10:11;;;;;;;18.15;9.13;;;;;;;3.18;85.78;96452.41;1278772;23;20734;-81
2021/03/25 00:10:41;;;;;;;14.35;9.00;;;;;;;3.13;86.05;96455.69;1278247;23;20005;-80
2021/03/25 00:11:11;;;;;;;16.17;8.93;;;;;;;3.16;85.99;96451.78;1278157;23;20024;-81
2021/03/25 00:11:42;;;;;;;14.63;9.30;;;;;;;3.16;86.54;96454.44;1278446;23;20001;-81
2021/03/25 00:12:12;;;;;;;14.07;8.90;;;;;;;3.22;85.68;96450.94;1278450;23;20084;-80
2021/03/25 00:12:43;;;;;;;15.43;9.87;;;;;;;3.22;86.05;96453.56;1278165;23;19997;-81
2021/03/25 00:13:13;;;;;;;20.43;9.73;;;;;;;3.18;85.62;96452.41;1278897;23;20001;-81
2021/03/25 00:13:44;;;;;;;15.27;8.87;;;;;;;3.09;86.46;96457.13;1278513;23;20011;-80
2021/03/25 00:14:15;;;;;;;14.57;9.10;;;;;;;3.08;86.50;96462.63;1278375;23;20502;-80
2021/03/25 00:14:45;;;;;;;15.73;8.80;;;;;;;3.09;86.18;96461.59;1278129;23;20096;-79
2021/03/25 00:15:16;;;;;;;13.17;8.57;;;;;;;3.12;86.53;96462.00;1278149;23;20008;-80
2021/03/25 00:15:46;;;;;;;12.90;8.40;;;;;;;3.16;86.31;96461.53;1278176;23;20001;-80
2021/03/25 00:16:17;;;;;;;14.97;8.83;;;;;;;3.10;86.07;96464.00;1277730;23;20055;-80
2021/03/25 00:16:47;;;;;;;14.00;8.43;;;;;;;3.13;85.86;96460.97;1278663;23;20008;-80
2021/03/25 00:17:17;;;;;;;13.57;8.47;;;;;;;3.09;85.68;96458.94;1277973;23;20500;-80
2021/03/25 00:17:48;;;;;;;15.93;8.53;;;;;;;3.11;85.84;96468.25;1278451;23;20001;-80
2021/03/25 00:18:18;;;;;;;11.57;8.13;;;;;;;3.12;85.58;96466.44;1278193;23;20001;-81
2021/03/25 00:18:49;;;;;;;12.77;8.37;;;;;;;3.14;85.77;96464.41;1278224;23;20001;-81
2021/03/25 00:19:20;;;;;;;12.00;7.70;;;;;;;3.10;85.54;96461.38;1278547;23;20001;-80
2021/03/25 00:19:50;;;;;;;12.73;8.30;;;;;;;3.17;85.77;96455.22;1278167;23;19997;-79
2021/03/25 00:20:21;;;;;;;12.43;7.80;;;;;;;3.19;85.59;96458.50;1278446;23;20477;-80
2021/03/25 00:20:51;;;;;;;14.43;7.87;;;;;;;3.18;85.34;96462.16;1283728;23;20000;-81
2021/03/25 00:21:22;;;;;;;12.80;8.07;;;;;;;3.17;85.58;96466.59;1284297;23;20358;-80
2021/03/25 00:21:52;;;;;;;12.37;7.93;;;;;;;3.17;85.40;96471.88;1284554;23;20000;-81
2021/03/25 00:22:22;;;;;;;11.17;7.97;;;;;;;3.18;85.28;96465.63;1284594;23;20418;-80
2021/03/25 00:22:53;;;;;;;14.60;8.00;;;;;;;3.22;85.17;96471.25;1278330;23;20079;-80
2021/03/25 00:23:23;;;;;;;14.73;8.27;;;;;;;3.22;85.19;96466.78;1272026;23;20375;-80
2021/03/25 00:23:54;;;;;;;12.70;7.73;;;;;;;3.19;85.06;96469.88;1272197;23;20001;-80
2021/03/25 00:24:24;;;;;;;13.73;8.07;;;;;;;3.21;85.11;96464.38;1272365;23;20004;-80
2021/03/25 00:24:54;;;;;;;12.23;8.37;;;;;;;3.22;84.87;96463.34;1278450;23;19989;-80
2021/03/25 00:25:27;;;;;;;11.87;7.73;;;;;;;3.21;85.21;96467.00;1278722;23;19996;-80
2021/03/25 00:25:58;;;;;;;14.57;9.13;;;;;;;3.19;84.92;96469.88;1278722;23;19990;-80
2021/03/25 00:26:28;;;;;;;17.20;9.13;;;;;;;3.14;85.16;96459.13;1278658;23;20001;-79
2021/03/25 00:26:59;;;;;;;11.33;7.90;;;;;;;3.13;85.38;96457.50;1278622;23;19997;-80
2021/03/25 00:27:29;;;;;;;18.47;7.70;;;;;;;3.07;85.41;96467.09;1278917;23;19993;-80
2021/03/25 00:27:59;;;;;;;13.60;8.27;;;;;;;3.13;85.61;96462.78;1278846;23;19993;-79
2021/03/25 00:28:30;;;;;;;13.07;8.37;;;;;;;3.11;85.17;96452.41;1278674;23;20001;-79
2021/03/25 00:29:00;;;;;;;14.33;8.60;;;;;;;3.13;85.39;96460.16;1278642;23;20004;-80
2021/03/25 00:29:31;;;;;;;15.00;8.40;;;;;;;3.10;85.47;96456.09;1278319;23;20001;-80
2021/03/25 00:30:01;;;;;;;13.23;7.90;;;;;;;3.11;85.45;96462.19;1278254;23;19996;-80
2021/03/25 00:30:32;;;;;;;11.70;8.03;;;;;;;3.10;85.21;96448.16;1278673;23;20020;-80
2021/03/25 00:31:02;;;;;;;12.73;8.30;;;;;;;3.10;85.35;96457.91;1278267;23;19997;-80
2021/03/25 00:31:33;;;;;;;16.93;8.80;;;;;;;3.09;85.43;96457.13;1278532;23;19993;-79
2021/03/25 00:32:04;;;;;;;13.90;8.23;;;;;;;3.08;85.19;96450.22;1278656;23;20000;-80
2021/03/25 00:32:34;;;;;;;16.93;8.23;;;;;;;3.12;85.30;96459.34;1278708;23;20004;-80
2021/03/25 00:33:05;;;;;;;15.07;8.53;;;;;;;3.11;85.27;96447.13;1278631;23;20247;-80
2021/03/25 00:33:36;;;;;;;12.18;8.50;;;;;;;3.09;85.57;96456.31;1278060;23;20004;-80
2021/03/25 00:34:06;;;;;;;13.17;8.40;;;;;;;3.08;85.34;96452.84;1278227;23;20000;-80
2021/03/25 00:34:37;;;;;;;15.17;9.30;;;;;;;3.10;85.53;96445.53;1278126;23;20001;-80
2021/03/25 00:35:08;;;;;;;13.40;8.30;;;;;;;3.09;85.42;96451.84;1278625;23;19996;-80
2021/03/25 00:35:39;;;;;;;13.00;7.80;;;;;;;3.10;84.84;96450.00;1278978;23;20437;-80
2021/03/25 00:36:09;;;;;;;14.23;8.33;;;;;;;3.08;85.50;96452.06;1278501;23;20008;-81
2021/03/25 00:36:40;;;;;;;13.17;7.97;;;;;;;3.08;85.35;96447.56;1278460;23;20023;-80
2021/03/25 00:37:10;;;;;;;14.43;8.00;;;;;;;3.09;85.03;96451.03;1278573;23;20076;-80
2021/03/25 00:37:40;;;;;;;12.90;8.27;;;;;;;3.11;85.15;96457.69;1278562;23;19993;-80
2021/03/25 00:38:11;;;;;;;14.07;8.30;;;;;;;3.12;85.49;96458.50;1278314;23;19989;-81
2021/03/25 00:38:42;;;;;;;15.93;7.90;;;;;;;3.12;84.83;96451.41;1278619;23;20025;-80
2021/03/25 00:39:13;;;;;;;14.10;8.10;;;;;;;3.14;85.42;96445.91;1278817;23;19997;-80
2021/03/25 00:39:43;;;;;;;11.10;7.70;;;;;;;3.18;84.99;96451.59;1284524;23;20484;-80
2021/03/25 00:40:14;;;;;;;15.07;8.93;;;;;;;3.18;84.82;96451.59;1278669;23;19989;-80
2021/03/25 00:40:45;;;;;;;12.90;8.27;;;;;;;3.17;84.60;96452.59;1278603;23;19997;-80
2021/03/25 00:41:16;;;;;;;12.00;7.68;;;;;;;3.16;84.61;96449.16;1278511;23;19989;-80
2021/03/25 00:41:46;;;;;;;12.73;8.03;;;;;;;3.13;85.00;96450.41;1278868;23;20410;-80
2021/03/25 00:42:17;;;;;;;17.13;8.17;;;;;;;3.17;85.03;96450.75;1278375;23;20059;-80
2021/03/25 00:42:47;;;;;;;12.10;7.80;;;;;;;3.14;84.98;96451.19;1279069;23;20081;-80
2021/03/25 00:43:20;;;;;;;13.47;8.30;;;;;;;3.14;84.63;96445.91;1284689;23;19992;-79
2021/03/25 00:43:50;;;;;;;13.20;7.78;;;;;;;3.13;84.80;96450.41;1284885;23;20451;-79
2021/03/25 00:44:21;;;;;;;14.17;8.73;;;;;;;3.13;84.85;96453.03;1278488;23;19997;-80
2021/03/25 00:44:51;;;;;;;11.77;7.97;;;;;;;3.13;85.18;96446.94;1272760;23;20005;-80
2021/03/25 00:45:34;;;;;;;15.70;8.17;;;;;;;3.12;84.78;96447.94;1273166;23;20021;-79
2021/03/25 00:46:04;;;;;;;15.55;8.00;;;;;;;3.12;84.71;96447.94;1275487;23;20013;-80
2021/03/25 00:46:35;;;;;;;12.27;7.97;;;;;;;3.10;85.15;96447.34;1278739;23;20592;-81
2021/03/25 00:47:05;;;;;;;12.57;7.90;;;;;;;3.11;84.59;96447.13;1279064;23;20013;-80
2021/03/25 00:47:36;;;;;;;12.43;8.10;;;;;;;3.11;84.81;96446.31;1285079;23;20001;-80
2021/03/25 00:48:07;;;;;;;13.13;7.93;;;;;;;3.09;84.68;96445.75;1278475;23;20066;-80
2021/03/25 00:48:37;;;;;;;16.63;8.23;;;;;;;3.09;84.84;96446.56;1278795;23;19997;-80
2021/03/25 00:49:08;;;;;;;11.47;7.50;;;;;;;3.11;84.65;96449.78;1278560;23;20481;-80
2021/03/25 00:49:38;;;;;;;13.80;8.13;;;;;;;3.09;85.05;96441.28;1278720;23;20003;-80
2021/03/25 00:50:10;;;;;;;13.07;7.87;;;;;;;3.06;84.62;96441.69;1279106;23;20009;-80
2021/03/25 00:50:42;;;;;;;13.57;8.38;;;;;;;3.07;84.78;96448.59;1278907;23;19997;-79
2021/03/25 00:51:13;;;;;;;13.02;7.45;;;;;;;3.05;85.01;96444.53;1278901;23;20005;-80
2021/03/25 00:51:43;;;;;;;14.60;8.90;;;;;;;3.07;85.03;96439.84;1278916;23;20415;-80
2021/03/25 00:52:14;;;;;;;13.23;8.13;;;;;;;3.07;84.87;96445.13;1278492;23;20001;-79
2021/03/25 00:52:44;;;;;;;11.60;8.03;;;;;;;2.99;85.08;96443.56;1278439;23;20379;-79
2021/03/25 00:53:17;;;;;;;13.00;8.10;;;;;;;3.03;85.06;96449.22;1278057;23;20005;-79
2021/03/25 00:53:48;;;;;;;14.75;7.78;;;;;;;3.02;84.56;96445.78;1278435;23;20008;-78
2021/03/25 00:54:18;;;;;;;11.20;7.50;;;;;;;3.02;84.92;96443.16;1278491;23;20008;-80
2021/03/25 00:54:48;;;;;;;13.20;7.57;;;;;;;3.02;84.32;96437.88;1278609;23;20012;-79
2021/03/25 00:55:19;;;;;;;11.97;8.30;;;;;;;3.03;84.55;96436.84;1278225;23;20059;-80
2021/03/25 00:55:50;;;;;;;11.70;7.80;;;;;;;3.03;84.94;96439.47;1279083;23;19996;-80
2021/03/25 00:56:20;;;;;;;11.90;7.65;;;;;;;2.98;84.82;96441.94;1279035;23;20407;-80
2021/03/25 00:56:51;;;;;;;10.97;7.37;;;;;;;2.99;84.72;96440.91;1278854;23;20044;-79
2021/03/25 00:57:21;;;;;;;14.40;8.00;;;;;;;3.00;85.13;96445.16;1279004;23;19999;-79
2021/03/25 00:57:52;;;;;;;13.00;7.77;;;;;;;2.98;84.83;96443.78;1279407;23;20030;-79
2021/03/25 00:58:22;;;;;;;13.63;8.37;;;;;;;2.99;84.87;96442.75;1279433;23;20344;-79
2021/03/25 00:58:53;;;;;;;12.43;8.07;;;;;;;2.98;84.52;96452.50;1279183;23;20044;-79
2021/03/25 00:59:23;;;;;;;12.10;7.63;;;;;;;3.00;84.33;96444.38;1279009;23;19996;-79
2021/03/25 00:59:54;;;;;;;13.57;7.97;;;;;;;2.97;84.60;96440.31;1279047;23;20001;-79
2021/03/25 01:00:27;;;;;;;11.63;7.47;;;;;;;2.92;84.68;96434.88;1278627;23;19993;-80
2021/03/25 01:00:58;;;;;;;13.73;7.97;;;;;;;2.93;84.96;96438.31;1278908;23;20312;-80
2021/03/25 01:01:29;;;;;;;12.82;8.27;;;;;;;2.93;85.09;96447.03;1278826;23;19993;-79
2021/03/25 01:02:00;;;;;;;11.13;7.23;;;;;;;2.88;85.43;96441.59;1278581;23;19985;-79
2021/03/25 01:02:30;;;;;;;13.60;7.97;;;;;;;2.91;84.80;96443.78;1279632;23;20370;-78
2021/03/25 01:03:01;;;;;;;13.10;8.10;;;;;;;2.89;84.53;96437.91;1280838;23;19997;-78
2021/03/25 01:03:31;;;;;;;13.10;8.10;;;;;;;2.92;84.75;96441.94;1279749;23;20012;-78
2021/03/25 01:04:01;;;;;;;13.57;8.40;;;;;;;2.90;85.02;96439.53;1280957;23;19997;-79
2021/03/25 01:04:32;;;;;;;14.70;7.70;;;;;;;2.86;84.68;96444.41;1281016;23;19997;-78
2021/03/25 01:05:04;;;;;;;11.47;7.90;;;;;;;2.84;85.04;96441.19;1278996;23;20315;-79
2021/03/25 01:05:34;;;;;;;12.90;7.40;;;;;;;2.86;84.94;96446.25;1278819;23;20012;-79
2021/03/25 01:06:05;;;;;;;12.40;7.33;;;;;;;2.82;84.74;96445.06;1278828;23;20038;-78
2021/03/25 01:06:35;;;;;;;15.87;8.73;;;;;;;2.84;84.76;96445.66;1278256;23;20432;-79
2021/03/25 01:07:06;;;;;;;13.27;7.07;;;;;;;2.75;84.94;96446.91;1278383;23;20013;-80
2021/03/25 01:07:36;;;;;;;12.63;7.47;;;;;;;2.67;85.49;96447.97;1278338;23;20001;-79
2021/03/25 01:08:07;;;;;;;16.27;7.67;;;;;;;2.69;85.15;96445.13;1278281;23;20001;-80
2021/03/25 01:08:37;;;;;;;12.30;7.65;;;;;;;2.73;85.27;96447.13;1278639;23;20419;-79
2021/03/25 01:09:30;;;;;;;12.07;7.37;;;;;;;2.77;84.97;96444.88;1279521;23;20008;-80
2021/03/25 01:10:00;;;;;;;12.75;8.05;;;;;;;2.64;85.67;96445.72;1278644;23;20116;-79
2021/03/25 01:10:35;;;;;;;15.23;6.83;;;;;;;2.63;85.63;96448.59;1278691;23;20008;-80
2021/03/25 01:11:20;;;;;;;12.55;7.10;;;;;;;2.65;85.76;96442.06;1278666;23;20090;-81
2021/03/25 01:11:51;;;;;;;12.38;8.02;;;;;;;2.66;85.96;96451.59;1284396;23;20007;-81
2021/03/25 01:12:21;;;;;;;11.33;6.80;;;;;;;2.71;85.34;96449.16;1272575;23;20029;-80
2021/03/25 01:12:51;;;;;;;15.23;7.63;;;;;;;2.72;85.60;96444.69;1266655;23;19998;-80
2021/03/25 01:13:31;;;;;;;12.37;7.70;;;;;;;2.67;85.14;96445.31;1260102;23;20385;-80
2021/03/25 01:14:02;;;;;;;11.85;7.20;;;;;;;2.67;85.50;96441.88;1257907;23;20003;-80
2021/03/25 01:14:33;;;;;;;12.07;7.80;;;;;;;2.69;85.73;96445.13;1268580;23;20078;-80
2021/03/25 01:15:05;;;;;;;10.80;7.17;;;;;;;2.69;85.25;96442.47;1274507;23;20436;-81
2021/03/25 01:15:35;;;;;;;12.82;7.60;;;;;;;2.70;85.79;96455.44;1272552;23;20006;-80
2021/03/25 01:16:07;;;;;;;11.30;7.23;;;;;;;2.74;85.50;96447.94;1277917;23;20028;-81
2021/03/25 01:16:39;;;;;;;11.13;7.22;;;;;;;2.74;85.41;96437.38;1278176;23;20490;-81
2021/03/25 01:17:09;;;;;;;12.50;7.22;;;;;;;2.77;85.03;96453.63;1267191;23;20056;-81
2021/03/25 01:17:50;;;;;;;10.80;7.60;;;;;;;2.75;85.24;96452.19;1272491;23;20479;-80
2021/03/25 01:18:21;;;;;;;12.98;7.30;;;;;;;2.78;85.21;96443.88;1266525;23;19998;-80
2021/03/25 01:18:52;;;;;;;10.90;7.03;;;;;;;2.76;84.58;96445.88;1274830;23;20001;-79
2021/03/25 01:19:26;;;;;;;15.52;7.75;;;;;;;2.79;85.08;96440.19;1278561;23;20008;-78
2021/03/25 01:19:57;;;;;;;14.13;7.25;;;;;;;2.81;84.56;96449.50;1278683;23;20000;-80
2021/03/25 01:20:45;;;;;;;12.13;7.67;;;;;;;2.79;85.06;96445.47;1278636;23;20008;-79
2021/03/25 01:21:15;;;;;;;12.63;7.18;;;;;;;2.81;84.51;96443.44;1283178;23;20008;-80
2021/03/25 01:21:46;;;;;;;12.67;7.23;;;;;;;2.81;84.36;96443.44;1278568;23;20001;-78
2021/03/25 01:22:16;;;;;;;14.73;7.67;;;;;;;2.81;84.48;96444.22;1278843;23;20001;-79
2021/03/25 01:22:47;;;;;;;13.80;7.53;;;;;;;2.83;84.12;96436.13;1272614;23;20001;-79
2021/03/25 01:23:17;;;;;;;14.50;7.77;;;;;;;2.84;84.80;96435.91;1254739;23;20006;-79
2021/03/25 01:23:47;;;;;;;11.97;7.50;;;;;;;2.84;84.71;96443.81;1254401;23;20397;-79
2021/03/25 01:24:18;;;;;;;10.43;7.10;;;;;;;2.85;84.67;96436.72;1266748;23;20002;-79
2021/03/25 01:24:48;;;;;;;14.20;7.60;;;;;;;2.84;84.23;96445.66;1272809;23;20036;-79
2021/03/25 01:25:19;;;;;;;13.43;8.00;;;;;;;2.83;84.20;96433.47;1279327;23;20012;-79
2021/03/25 01:25:50;;;;;;;11.55;6.70;;;;;;;2.82;84.53;96442.44;1278988;23;20128;-78
2021/03/25 01:26:20;;;;;;;13.47;7.50;;;;;;;2.82;84.48;96445.06;1279089;23;20453;-78
2021/03/25 01:26:51;;;;;;;10.67;7.20;;;;;;;2.82;84.51;96432.69;1279264;23;20028;-79
2021/03/25 01:27:21;;;;;;;10.93;7.23;;;;;;;2.84;83.99;96432.47;1272528;23;20392;-80
2021/03/25 01:27:52;;;;;;;11.43;7.10;;;;;;;2.83;84.08;96430.84;1272478;23;20006;-79
2021/03/25 01:28:22;;;;;;;13.40;7.53;;;;;;;2.82;84.48;96437.16;1272465;23;20005;-79
2021/03/25 01:28:53;;;;;;;14.90;7.63;;;;;;;2.83;84.42;96436.13;1272624;23;20002;-78
2021/03/25 01:29:23;;;;;;;11.63;7.13;;;;;;;2.87;83.98;96439.97;1278706;23;20383;-79
2021/03/25 01:29:53;;;;;;;16.10;8.10;;;;;;;2.83;84.23;96434.28;1272544;23;20415;-78
2021/03/25 01:30:24;;;;;;;10.40;6.60;;;;;;;2.83;84.30;96438.75;1272775;23;20308;-78
2021/03/25 01:30:55;;;;;;;10.73;7.00;;;;;;;2.83;84.53;96433.47;1278799;23;20326;-78
2021/03/25 01:31:26;;;;;;;11.10;6.60;;;;;;;2.88;84.00;96435.50;1273102;23;19997;-81
2021/03/25 01:31:57;;;;;;;10.48;6.75;;;;;;;2.88;84.15;96432.84;1278574;23;20403;-78
2021/03/25 01:32:28;;;;;;;12.30;7.17;;;;;;;2.88;83.92;96431.03;1278532;23;20000;-78
2021/03/25 01:32:59;;;;;;;11.52;7.35;;;;;;;2.87;83.71;96434.69;1272837;23;20009;-79
2021/03/25 01:33:29;;;;;;;13.07;6.90;;;;;;;2.89;84.21;96431.84;1278504;23;20088;-79
2021/03/25 01:34:00;;;;;;;11.63;7.03;;;;;;;2.89;84.36;96435.28;1272516;23;20112;-79
2021/03/25 01:34:31;;;;;;;11.50;7.53;;;;;;;2.89;83.55;96424.72;1272219;23;20037;-79
2021/03/25 01:35:02;;;;;;;12.10;7.13;;;;;;;2.85;83.63;96429.59;1272264;23;20005;-81
2021/03/25 01:35:33;;;;;;;11.27;6.90;;;;;;;2.87;83.65;96424.13;1272853;23;20005;-79
2021/03/25 01:36:04;;;;;;;13.55;7.25;;;;;;;2.88;83.53;96428.38;1278587;23;20267;-79
2021/03/25 01:36:34;;;;;;;13.83;7.30;;;;;;;2.85;83.66;96421.69;1272737;23;20016;-79
2021/03/25 01:37:05;;;;;;;12.47;7.57;;;;;;;2.86;83.97;96425.94;1278565;23;20318;-79
2021/03/25 01:37:38;;;;;;;12.63;7.03;;;;;;;2.87;84.17;96426.78;1278763;23;20008;-80
2021/03/25 01:38:10;;;;;;;10.85;7.00;;;;;;;2.87;84.22;96424.13;1278922;23;20009;-79
2021/03/25 01:38:40;;;;;;;10.27;6.65;;;;;;;2.87;83.64;96424.13;1279118;23;20083;-78
2021/03/25 01:39:10;;;;;;;11.93;6.43;;;;;;;2.86;83.61;96419.84;1280562;23;20008;-79
2021/03/25 01:39:41;;;;;;;11.73;7.03;;;;;;;2.88;83.39;96415.19;1279862;23;20000;-80
2021/03/25 01:40:38;;;;;;;10.50;6.93;;;;;;;2.84;83.62;96425.34;1279347;23;20009;-80
2021/03/25 01:41:08;;;;;;;12.13;6.82;;;;;;;2.80;83.94;96420.69;1278843;23;20005;-80
2021/03/25 01:41:39;;;;;;;10.13;6.67;;;;;;;2.85;83.95;96420.88;1279096;23;19997;-80
2021/03/25 01:42:19;;;;;;;12.57;7.93;;;;;;;2.86;83.33;96415.38;1278957;23;20007;-80
2021/03/25 01:42:50;;;;;;;11.00;7.18;;;;;;;2.84;83.34;96419.25;1279056;23;20330;-80
2021/03/25 01:43:31;;;;;;;11.70;7.27;;;;;;;2.84;83.80;96414.78;1279305;23;20095;-80
2021/03/25 01:44:02;;;;;;;11.57;7.32;;;;;;;2.85;82.91;96421.69;1278561;23;20009;-80
2021/03/25 01:44:37;;;;;;;11.50;6.75;;;;;;;2.87;83.03;96413.56;1272516;23;19994;-79
2021/03/25 01:45:28;;;;;;;12.65;6.88;;;;;;;2.81;83.29;96419.66;1272589;23;20459;-80
2021/03/25 01:45:58;;;;;;;12.60;7.53;;;;;;;2.81;83.94;96412.56;1277555;23;20063;-81
2021/03/25 01:46:38;;;;;;;12.10;6.80;;;;;;;2.82;83.47;96410.75;1278521;23;20001;-80
2021/03/25 01:47:09;;;;;;;11.43;7.13;;;;;;;2.79;83.60;96411.16;1279057;23;20008;-80
2021/03/25 01:47:39;;;;;;;11.65;7.45;;;;;;;2.79;83.57;96416.44;1278958;23;20358;-80
2021/03/25 01:48:10;;;;;;;11.00;7.13;;;;;;;2.79;83.60;96417.25;1279010;23;20009;-80
2021/03/25 01:48:41;;;;;;;9.87;6.90;;;;;;;2.77;83.39;96416.66;1279143;23;20005;-80
2021/03/25 01:49:12;;;;;;;11.00;7.28;;;;;;;2.72;83.97;96411.19;1278973;23;20001;-79
2021/03/25 01:49:43;;;;;;;12.10;7.32;;;;;;;2.67;84.25;96410.22;1279180;23;20001;-80
2021/03/25 01:50:13;;;;;;;10.20;6.70;;;;;;;2.66;83.95;96408.56;1278968;23;20005;-79
2021/03/25 01:50:44;;;;;;;13.67;7.30;;;;;;;2.63;84.50;96409.00;1279118;23;20020;-79
2021/03/25 01:51:14;;;;;;;10.60;6.63;;;;;;;2.63;84.43;96406.38;1278709;23;20110;-78
2021/03/25 01:52:00;;;;;;;12.20;7.37;;;;;;;2.64;84.45;96411.44;1278916;23;20117;-80
2021/03/25 01:53:01;;;;;;;12.30;6.80;;;;;;;2.63;84.30;96409.81;1278521;23;20039;-79
2021/03/25 01:53:45;;;;;;;13.80;6.93;;;;;;;2.61;84.77;96403.94;1265979;23;20010;-79
2021/03/25 01:54:30;;;;;;;10.00;6.13;;;;;;;2.60;84.14;96412.84;1269090;23;20010;-80
2021/03/25 01:55:06;;;;;;;9.82;6.85;;;;;;;2.63;84.29;96401.91;1278790;23;20418;-80
2021/03/25 01:55:47;;;;;;;10.40;6.30;;;;;;;2.62;84.37;96407.38;1278542;23;19997;-79
2021/03/25 01:56:23;;;;;;;10.68;6.63;;;;;;;2.63;84.21;96407.16;1278941;23;20053;-79
2021/03/25 01:57:08;;;;;;;9.43;6.10;;;;;;;2.62;84.59;96410.84;1279002;23;20008;-79
2021/03/25 01:57:52;;;;;;;10.63;6.47;;;;;;;2.62;84.23;96402.91;1278779;23;20011;-79
2021/03/25 01:58:40;;;;;;;9.93;6.32;;;;;;;2.65;84.24;96399.84;1278513;23;20005;-80
2021/03/25 01:59:26;;;;;;;12.05;6.30;;;;;;;2.61;84.30;96403.94;1280872;23;20382;-80
2021/03/25 02:00:15;;;;;;;12.25;6.43;;;;;;;2.58;84.34;96404.34;1283814;23;20373;-80
2021/03/25 02:00:51;;;;;;;11.23;6.55;;;;;;;2.56;84.70;96406.41;1278544;23;20005;-80
2021/03/25 02:01:27;;;;;;;10.52;6.18;;;;;;;2.57;84.40;96400.91;1278467;23;19997;-80
2021/03/25 02:02:15;;;;;;;10.65;6.43;;;;;;;2.56;84.51;96403.75;1272526;23;20021;-80
2021/03/25 02:03:08;;;;;;;11.23;6.20;;;;;;;2.56;84.39;96401.94;1272186;23;20091;-80
2021/03/25 02:03:58;;;;;;;12.95;6.88;;;;;;;2.56;84.81;96403.75;1268760;23;20396;-80
2021/03/25 02:04:50;;;;;;;11.23;6.75;;;;;;;2.43;85.58;96406.44;1274742;23;20017;-80
2021/03/25 02:05:37;;;;;;;16.10;6.45;;;;;;;2.44;85.41;96406.22;1284345;23;20003;-82
2021/03/25 02:06:18;;;;;;;12.07;6.15;;;;;;;2.47;84.88;96411.09;1272479;23;20002;-80
2021/03/25 02:07:00;;;;;;;10.40;6.75;;;;;;;2.49;85.42;96405.59;1260341;23;20010;-80
2021/03/25 02:07:34;;;;;;;11.90;6.03;;;;;;;2.46;85.06;96400.75;1261971;23;20447;-80
2021/03/25 02:08:21;;;;;;;10.43;6.35;;;;;;;2.49;84.47;96402.97;1265308;23;20013;-80
2021/03/25 02:09:07;;;;;;;10.38;6.45;;;;;;;2.45;84.75;96402.56;1278817;23;20008;-80
2021/03/25 02:09:46;;;;;;;10.95;6.65;;;;;;;2.46;84.94;96403.41;1272881;23;20490;-80
2021/03/25 02:10:25;;;;;;;12.82;6.00;;;;;;;2.44;85.09;96403.59;1278607;23;20370;-80
2021/03/25 02:11:05;;;;;;;8.52;6.03;;;;;;;2.41;85.15;96400.56;1272522;23;19997;-80
2021/03/25 02:11:54;;;;;;;10.20;6.20;;;;;;;2.41;85.54;96398.75;1266998;23;20013;-80
2021/03/25 02:12:35;;;;;;;10.25;6.20;;;;;;;2.45;85.06;96404.38;1260402;23;20006;-80
2021/03/25 02:13:31;;;;;;;9.65;6.30;;;;;;;2.46;85.43;96395.47;1261176;23;20038;-80
2021/03/25 02:14:21;;;;;;;12.30;6.38;;;;;;;2.42;85.65;96405.63;1267612;23;20001;-80
2021/03/25 02:14:59;;;;;;;9.70;6.22;;;;;;;2.41;85.74;96401.38;1279954;23;20005;-80
2021/03/25 02:15:48;;;;;;;13.23;6.30;;;;;;;2.42;85.39;96397.72;1278519;23;20009;-79
2021/03/25 02:16:24;;;;;;;9.52;6.22;;;;;;;2.41;85.79;96401.38;1278664;23;20450;-78
2021/03/25 02:17:10;;;;;;;11.60;6.20;;;;;;;2.40;85.68;96402.38;1278401;23;20005;-79
2021/03/25 02:17:44;;;;;;;10.45;6.35;;;;;;;2.40;85.41;96402.38;1284638;23;20001;-79
2021/03/25 02:18:32;;;;;;;10.25;6.05;;;;;;;2.41;85.07;96404.00;1278531;23;20071;-79
2021/03/25 02:19:10;;;;;;;10.60;6.18;;;;;;;2.41;85.18;96403.22;1266248;23;19998;-79
2021/03/25 02:19:49;;;;;;;13.60;6.20;;;;;;;2.40;84.97;96398.94;1260208;23;20460;-79
2021/03/25 02:20:30;;;;;;;10.25;6.15;;;;;;;2.37;84.92;96388.81;1266484;23;20037;-80
2021/03/25 02:21:00;;;;;;;9.13;6.15;;;;;;;2.35;85.10;96399.56;1270987;23;19997;-80
2021/03/25 02:21:49;;;;;;;11.20;6.20;;;;;;;2.39;85.51;96397.31;1276857;23;20016;-80
2021/03/25 02:22:29;;;;;;;10.48;6.15;;;;;;;2.38;84.93;96399.16;1278364;23;20065;-80
2021/03/25 02:23:02;;;;;;;9.27;5.78;;;;;;;2.39;84.90;96394.69;1284031;23;20001;-80
2021/03/25 02:24:00;;;;;;;10.52;6.38;;;;;;;2.34;84.79;96395.28;1278423;23;20496;-80
2021/03/25 02:24:44;;;;;;;10.98;6.03;;;;;;;2.35;85.08;96396.91;1278634;23;20044;-80
2021/03/25 02:25:23;;;;;;;8.35;6.00;;;;;;;2.36;84.81;96395.09;1280536;23;20009;-80
2021/03/25 02:26:00;;;;;;;9.98;6.45;;;;;;;2.32;85.38;96397.34;1272333;23;20080;-80
2021/03/25 02:27:06;;;;;;;10.60;5.93;;;;;;;2.21;85.91;96396.16;1272283;23;20355;-80
2021/03/25 02:27:47;;;;;;;10.02;5.53;;;;;;;2.23;85.61;96395.94;1275433;23;20009;-80
2021/03/25 02:28:39;;;;;;;9.07;5.53;;;;;;;2.22;85.51;96391.69;1278479;23;20335;-80
2021/03/25 02:29:24;;;;;;;11.02;6.15;;;;;;;2.21;85.93;96390.09;1276379;23;20037;-80
2021/03/25 02:30:03;;;;;;;12.52;5.78;;;;;;;2.14;86.16;96386.63;1278921;23;19998;-80
2021/03/25 02:30:37;;;;;;;10.15;6.13;;;;;;;2.12;86.22;96394.75;1274921;23;19997;-80
2021/03/25 02:31:14;;;;;;;9.27;5.13;;;;;;;2.08;86.43;96398.81;1266601;23;20028;-80
2021/03/25 02:31:47;;;;;;;11.68;5.40;;;;;;;2.12;85.99;96392.13;1266773;23;20001;-80
2021/03/25 02:32:49;;;;;;;9.45;5.53;;;;;;;2.17;86.56;96399.41;1254413;23;20039;-80
2021/03/25 02:33:21;;;;;;;10.70;5.65;;;;;;;2.18;86.58;96388.66;1249482;23;20481;-80
2021/03/25 02:33:52;;;;;;;9.75;5.80;;;;;;;2.18;85.85;96388.66;1253596;23;20071;-80
2021/03/25 02:34:28;;;;;;;8.40;5.43;;;;;;;2.22;85.82;96399.59;1260305;23;19994;-80
2021/03/25 02:35:01;;;;;;;8.70;5.50;;;;;;;2.19;86.18;96398.19;1255806;23;20512;-80
2021/03/25 02:35:37;;;;;;;11.18;5.60;;;;;;;2.18;86.37;96398.38;1258078;23;20006;-80
2021/03/25 02:36:09;;;;;;;9.38;5.47;;;;;;;2.19;85.70;96397.38;1263192;23;19995;-80
2021/03/25 02:36:46;;;;;;;10.00;5.35;;;;;;;2.22;85.94;96389.06;1262493;23;19998;-81
2021/03/25 02:37:27;;;;;;;9.88;5.47;;;;;;;2.23;85.90;96394.13;1269473;23;20026;-80
2021/03/25 02:38:00;;;;;;;10.77;5.68;;;;;;;2.20;86.45;96391.91;1266189;23;20078;-81
2021/03/25 02:38:44;;;;;;;9.00;5.75;;;;;;;2.20;85.79;96398.97;1274663;23;20041;-80
2021/03/25 02:39:19;;;;;;;10.10;5.35;;;;;;;2.22;85.72;96397.78;1272372;23;19989;-80
2021/03/25 02:40:08;;;;;;;14.25;5.47;;;;;;;2.20;85.43;96397.19;1266097;23;20005;-81
2021/03/25 02:40:42;;;;;;;8.57;5.38;;;;;;;2.22;86.03;96399.59;1266292;23;19998;-80
2021/03/25 02:41:20;;;;;;;8.18;4.90;;;;;;;2.23;86.34;96398.59;1277858;23;19993;-78
2021/03/25 02:41:52;;;;;;;11.65;5.45;;;;;;;2.24;85.66;96397.56;1278426;23;20000;-81